Stations météo

réclame
Mon MeteoGroup
Pian Rosa, Italie (16052): Température de l'air & dewpoint: 12.02.2019 20:00:00 - 18.02.2019 20:00:00 (CET)Pian Rosa, Italie (16052): Vitesse du vent: 12.02.2019 20:00:00 - 18.02.2019 20:00:00 (CET)Pian Rosa, Italie (16052): Direction du vent: 12.02.2019 20:00:00 - 18.02.2019 20:00:00 (CET)Pian Rosa, Italie (16052): visibility: 12.02.2019 20:00:00 - 18.02.2019 20:00:00 (CET)Pian Rosa, Italie (16052): Ensoleillement: 12.02.2019 20:00:00 - 18.02.2019 20:00:00 (CET)
Date & Time tt [°C] td [°C] ff [km/h] ff [knt] dd vv [km] sd [min]
18.02.2019 20:00:00 - - - - - - -
18.02.2019 19:00:00 -5,0 -22,5 22 12 S 10 12
18.02.2019 18:00:00 -5,0 -23,0 28 15 S 50 60
18.02.2019 17:00:00 -5,0 -22,5 15 8 S 60 60
18.02.2019 16:00:00 -4,8 -22,8 18 10 S 60 60
18.02.2019 15:00:00 -4,8 -21,4 15 8 S 60 60
18.02.2019 14:00:00 -4,6 -20,8 9 5 S 60 60
18.02.2019 13:00:00 -4,4 -19,8 9 5 SSW 60 60
18.02.2019 12:00:00 -4,6 -18,4 18 10 S 80 60
18.02.2019 11:00:00 -4,6 -16,1 15 8 S 80 -
18.02.2019 10:00:00 -0,6 -13,2 15 8 S 75 60
18.02.2019 09:00:00 -6,6 -18,0 37 20 S 80 -
18.02.2019 08:00:00 -6,6 -18,0 37 20 S 80 -
18.02.2019 07:00:00 -6,8 -18,4 37 20 S 25 -
18.02.2019 06:00:00 -5,6 -18,3 28 15 S 15 -
18.02.2019 05:00:00 -6,4 -20,8 28 15 SSW 15 -
18.02.2019 04:00:00 -6,4 -20,4 28 15 SSW 15 -
18.02.2019 03:00:00 -6,2 -21,0 28 15 SSW 15 -
18.02.2019 02:00:00 -6,2 -19,2 28 15 S 10 -
18.02.2019 01:00:00 -6,2 -19,5 28 15 S 15 -
18.02.2019 00:00:00 -6,2 -21,8 28 15 S 15 -
17.02.2019 23:00:00 -6,2 -24,5 37 20 S 15 -
17.02.2019 22:00:00 -6,4 -25,7 37 20 S 15 -
17.02.2019 21:00:00 -5,6 -26,8 28 15 S 15 -
17.02.2019 20:00:00 -5,8 -28,3 37 20 S 15 -
17.02.2019 19:00:00 -5,2 -27,8 18 10 SSW 15 12
17.02.2019 18:00:00 -4,8 -26,8 28 15 S 75 60
17.02.2019 17:00:00 -3,4 -27,1 18 10 SSE 75 60
17.02.2019 16:00:00 -3,2 -28,6 28 15 S 75 60
17.02.2019 15:00:00 -3,0 -27,6 18 10 S 75 60
17.02.2019 14:00:00 -3,0 -29,4 9 5 S 75 60
17.02.2019 13:00:00 -3,2 -30,0 18 10 S 80 60
17.02.2019 12:00:00 -3,4 -30,0 18 10 ESE 80 60
17.02.2019 11:00:00 -3,2 -30,0 18 10 ESE 80 60
17.02.2019 10:00:00 -3,2 -30,0 18 10 SE 75 60
17.02.2019 09:00:00 -4,2 -30,0 18 10 ESE 75 -
17.02.2019 08:00:00 -4,8 -30,0 9 5 S 80 -
17.02.2019 07:00:00 -5,0 -30,0 13 7 SSW 30 -
17.02.2019 06:00:00 -4,6 -30,0 18 10 SSW 10 -
17.02.2019 05:00:00 -4,4 -29,6 28 15 S 15 -
17.02.2019 04:00:00 -4,8 -30,0 28 15 SSE 15 -
17.02.2019 03:00:00 -5,0 -30,0 28 15 S 15 -
17.02.2019 02:00:00 -6,2 -30,0 28 15 S 15 -
17.02.2019 01:00:00 -6,0 -30,0 18 10 SSW 15 -
17.02.2019 00:00:00 -5,8 -30,0 15 8 SSW 15 -
16.02.2019 23:00:00 -5,6 -30,0 9 5 ESE 15 -
16.02.2019 22:00:00 -5,2 -30,0 9 5 E 15 -
16.02.2019 21:00:00 -4,6 -30,0 5 3 N 15 -
16.02.2019 20:00:00 -4,6 -29,7 9 5 ESE 10 -
16.02.2019 19:00:00 -4,2 -28,6 9 5 ESE 10 12
16.02.2019 18:00:00 -3,2 -27,8 0 0 N 75 60
16.02.2019 17:00:00 -2,8 -30,0 0 0 N 80 60
16.02.2019 16:00:00 -1,8 -29,5 0 0 N 80 60
16.02.2019 15:00:00 -1,4 -29,2 0 0 N 80 60
16.02.2019 14:00:00 1,6 -25,7 0 0 N 80 60
16.02.2019 13:00:00 -1,6 -28,3 0 0 N 80 60
16.02.2019 12:00:00 -1,8 -27,5 4 2 - 80 60
16.02.2019 11:00:00 -4,2 -29,4 4 2 - 80 60
16.02.2019 10:00:00 -4,8 -29,9 9 5 E 80 60
16.02.2019 09:00:00 -6,0 -30,0 18 10 ENE 75 -
16.02.2019 08:00:00 -6,2 -30,0 28 15 ENE 75 -
16.02.2019 07:00:00 -6,0 -30,0 28 15 E 20 -
16.02.2019 06:00:00 -5,4 -30,0 18 10 ENE 10 -
16.02.2019 05:00:00 -5,4 -30,0 18 10 E 10 -
16.02.2019 04:00:00 -5,4 -30,0 4 2 - 10 -
16.02.2019 03:00:00 -5,2 -30,0 4 2 - 10 -
16.02.2019 02:00:00 -4,8 -29,9 4 2 - 10 -
16.02.2019 01:00:00 -4,8 -29,9 5 3 - 10 -
16.02.2019 00:00:00 -5,2 -30,0 9 5 SSE 10 -
15.02.2019 23:00:00 -5,4 -30,0 9 5 SE 10 -
15.02.2019 22:00:00 -5,2 -30,0 9 5 SSW 10 -
15.02.2019 21:00:00 -5,0 -30,0 9 5 ENE 10 -
15.02.2019 20:00:00 -4,4 -30,0 9 5 E 10 -
15.02.2019 19:00:00 -4,6 -30,0 9 5 ENE 10 12
15.02.2019 18:00:00 -5,0 -30,0 9 5 ENE 75 60
15.02.2019 17:00:00 -5,0 -30,0 9 5 ENE 80 60
15.02.2019 16:00:00 -5,0 -30,0 5 3 N 75 60
15.02.2019 15:00:00 -5,0 -30,0 5 3 N 75 60
15.02.2019 14:00:00 -3,4 -24,3 0 0 N 75 60
15.02.2019 13:00:00 -4,8 -25,5 0 0 N 80 60
15.02.2019 12:00:00 -6,0 -23,8 18 10 ENE 80 60
15.02.2019 11:00:00 -6,2 -23,0 18 10 ENE 80 60
15.02.2019 10:00:00 -6,4 -21,9 28 15 ENE 80 54
15.02.2019 09:00:00 -7,2 -21,8 18 10 ENE 75 -
15.02.2019 08:00:00 -7,0 -20,9 28 15 E 80 -
15.02.2019 07:00:00 -7,0 -20,9 5 3 - 10 -
15.02.2019 06:00:00 -7,0 -19,6 4 2 - 10 -
15.02.2019 05:00:00 -7,2 -19,7 5 3 N 10 -
15.02.2019 04:00:00 -7,2 -19,7 4 2 N 15 -
15.02.2019 03:00:00 -7,2 -19,7 4 2 N 15 -
15.02.2019 02:00:00 -6,8 -19,7 4 2 N 15 -
15.02.2019 01:00:00 -6,6 -19,9 5 3 N 15 -
15.02.2019 00:00:00 -6,6 -20,2 4 2 N 15 -
14.02.2019 23:00:00 -6,4 -20,4 5 3 N 15 -
14.02.2019 22:00:00 -6,2 -20,2 5 3 N 15 -
14.02.2019 21:00:00 -5,4 -17,8 4 2 N 15 -
14.02.2019 20:00:00 -6,2 -18,5 4 2 - 10 -
14.02.2019 19:00:00 -5,8 -18,2 5 3 - 10 6
14.02.2019 18:00:00 -5,4 -17,8 4 2 - 80 60
14.02.2019 17:00:00 -5,0 -17,4 4 2 - 80 60
14.02.2019 16:00:00 -4,8 -17,9 5 3 N 75 60
14.02.2019 15:00:00 -4,8 -17,9 4 2 - 80 60
14.02.2019 14:00:00 -5,4 -18,1 9 5 ENE 80 60
14.02.2019 13:00:00 -5,8 -18,5 18 10 ENE 75 60
14.02.2019 12:00:00 -5,8 -17,8 18 10 ENE 80 60
14.02.2019 11:00:00 -6,2 -18,2 18 10 ENE 80 60
14.02.2019 10:00:00 -6,4 -19,7 22 12 ENE 80 54
14.02.2019 09:00:00 -6,8 -19,1 15 8 NE 80 0
14.02.2019 08:00:00 -7,2 -19,4 22 12 ENE 80 -
14.02.2019 07:00:00 -7,0 -18,9 15 8 NE 10 -
14.02.2019 06:00:00 -7,0 -18,9 22 12 NE 10 -
14.02.2019 05:00:00 -7,2 -18,8 18 10 ENE 10 -
14.02.2019 04:00:00 -7,2 -18,8 18 10 ENE 10 -
14.02.2019 03:00:00 -7,2 -18,8 18 10 ENE 10 -
14.02.2019 02:00:00 -7,4 -17,8 4 2 - 10 -
14.02.2019 01:00:00 -7,4 -17,3 5 3 - 10 -
14.02.2019 00:00:00 -7,6 -17,2 4 2 - 10 -
13.02.2019 23:00:00 -7,6 -18,0 4 2 - 10 -
13.02.2019 22:00:00 -7,6 -14,9 18 10 ENE 10 -
13.02.2019 21:00:00 -7,4 -14,7 26 14 ENE 10 -
13.02.2019 20:00:00 -7,4 -15,1 11 6 NE 10 -
13.02.2019 19:00:00 -7,6 -14,9 15 8 NE 10 -
13.02.2019 18:00:00 -7,4 -14,9 11 6 NE 80 60
13.02.2019 17:00:00 -7,0 -15,0 4 2 - 80 60
13.02.2019 16:00:00 -6,8 -14,5 13 7 NE 80 60
13.02.2019 15:00:00 -6,8 -14,8 15 8 NNE 80 60
13.02.2019 14:00:00 -6,6 -15,1 4 2 - 80 60
13.02.2019 13:00:00 -6,4 -14,9 9 5 E 80 60
13.02.2019 12:00:00 -6,6 -15,1 9 5 ENE 80 60
13.02.2019 11:00:00 -6,8 -15,3 9 5 ENE 80 60
13.02.2019 10:00:00 -7,0 -15,4 0 0 N 80 42
13.02.2019 09:00:00 -7,6 -16,0 9 5 ENE 80 -
13.02.2019 08:00:00 -7,8 -16,2 9 5 ENE 80 -
13.02.2019 07:00:00 -8,4 -16,7 9 5 ENE 30 -
13.02.2019 06:00:00 -8,0 -16,1 0 0 N 10 -
13.02.2019 05:00:00 -9,8 -16,9 0 0 N 10 -
13.02.2019 04:00:00 -9,8 -16,9 0 0 N 10 -
13.02.2019 03:00:00 -10,0 -17,3 0 0 N 10 -
13.02.2019 02:00:00 -10,8 -18,5 0 0 N 10 -
13.02.2019 01:00:00 -10,4 -14,8 0 0 N 10 -
13.02.2019 00:00:00 -10,0 -13,6 4 2 - 10 -
12.02.2019 23:00:00 -9,8 -13,4 37 20 NE 10 -
12.02.2019 22:00:00 -10,8 -13,1 37 20 NE 10 -
12.02.2019 21:00:00 -11,2 -14,3 55 30 E 10 -
12.02.2019 20:00:00 -11,8 -20,6 55 30 E 10 -

tt = Température de l'air
td = dewpoint
ff = Vitesse du vent
dd = Direction du vent
vv = visibility
sd = Ensoleillement

stations d'obs. à proximité